createdAt,value
2023-12-28T09:21:00.874Z,6.97
2023-12-28T09:23:29.348Z,6.70
2023-12-28T09:25:58.880Z,5.83
2023-12-28T09:28:30.444Z,7.20
2023-12-28T09:30:58.253Z,7.20
2023-12-28T09:33:25.678Z,6.10
2023-12-28T09:35:53.521Z,7.40
2023-12-28T09:38:32.963Z,6.57
2023-12-28T09:52:48.297Z,7.17
2023-12-28T09:55:16.143Z,6.63
2023-12-28T09:57:47.848Z,6.00
2023-12-28T10:00:32.069Z,5.60
2023-12-28T10:06:24.358Z,6.47
2023-12-28T10:08:57.842Z,6.40
2023-12-28T12:42:13.736Z,4.40
2023-12-28T12:44:42.941Z,5.60
2023-12-28T13:14:17.766Z,3.20
2023-12-28T13:16:57.159Z,3.80
2023-12-28T13:23:35.754Z,3.40
2023-12-28T13:26:08.139Z,3.23
2023-12-28T13:32:27.908Z,3.50
2023-12-28T13:37:48.921Z,3.90
2023-12-28T13:40:19.763Z,4.27
2023-12-28T13:42:47.903Z,4.67
2023-12-28T13:45:53.688Z,3.80
2023-12-28T13:48:21.393Z,3.20
2023-12-28T13:59:34.158Z,4.27
2023-12-28T14:02:20.582Z,4.20
2023-12-28T14:05:15.095Z,4.63
2023-12-28T14:07:42.599Z,4.77
2023-12-28T14:13:15.603Z,3.90
2023-12-28T14:15:42.911Z,4.77
2023-12-28T14:18:31.675Z,5.67
2023-12-28T14:20:59.147Z,4.30
2023-12-28T14:23:26.529Z,3.93
2023-12-28T14:25:55.026Z,4.47
2023-12-28T14:28:24.973Z,3.83
2023-12-28T14:30:52.411Z,4.20
2023-12-28T14:33:23.424Z,4.10
2023-12-28T14:35:51.129Z,4.50
2023-12-28T14:38:18.024Z,3.47
2023-12-28T14:40:45.319Z,3.77
2023-12-28T14:43:14.511Z,3.63
2023-12-28T14:45:42.504Z,3.10
2023-12-28T14:48:38.858Z,4.33
2023-12-28T14:51:05.797Z,3.00
2023-12-28T14:53:51.774Z,3.90
2023-12-28T14:56:36.610Z,3.57
2023-12-28T15:02:01.945Z,3.73
2023-12-28T15:04:31.246Z,3.47
2023-12-28T15:07:26.758Z,3.10
2023-12-28T15:16:07.605Z,5.00
2023-12-28T15:22:07.879Z,4.27
2023-12-28T15:28:31.557Z,3.90
2023-12-28T15:31:10.918Z,3.67
2023-12-28T15:36:51.272Z,3.27
2023-12-28T15:39:38.714Z,2.87
2023-12-28T16:12:18.434Z,2.17
2023-12-28T16:16:05.548Z,1.67
2023-12-28T16:22:54.383Z,2.10
2023-12-28T16:26:13.844Z,2.63
2023-12-28T16:28:55.043Z,1.90
2023-12-28T16:37:33.926Z,2.93
2023-12-28T16:49:26.644Z,3.10
2023-12-28T16:52:33.120Z,2.50
2023-12-28T16:56:04.766Z,3.07
2023-12-28T17:09:54.906Z,3.83
2023-12-28T17:13:23.835Z,2.90
2023-12-28T17:26:38.353Z,3.10
2023-12-28T17:32:41.792Z,3.30
2023-12-28T17:35:51.121Z,2.73
2023-12-28T17:48:34.140Z,3.57
2023-12-28T17:51:14.729Z,2.70
2023-12-28T17:53:53.873Z,3.90
2023-12-28T17:56:56.850Z,3.33
2023-12-28T18:00:22.710Z,3.07
2023-12-28T18:18:42.868Z,3.03
2023-12-28T18:21:34.894Z,3.57
2023-12-28T18:24:20.575Z,3.63
2023-12-28T18:27:06.192Z,3.40
2023-12-28T18:30:28.512Z,3.27
2023-12-28T18:39:49.073Z,3.27
2023-12-28T18:42:23.108Z,4.03
2023-12-28T18:44:51.066Z,3.43
2023-12-28T18:47:19.441Z,3.10
2023-12-28T18:49:46.776Z,3.00
2023-12-28T18:52:33.295Z,3.00
2023-12-28T18:55:17.101Z,3.30
2023-12-28T18:57:44.417Z,4.27
2023-12-28T19:00:18.768Z,2.70
2023-12-28T19:02:45.624Z,3.30
2023-12-28T19:05:26.121Z,3.37
2023-12-28T19:07:53.023Z,3.70
2023-12-28T19:10:20.088Z,3.23
2023-12-28T19:12:51.269Z,2.70
2023-12-28T19:15:21.161Z,4.23
2023-12-28T19:18:07.776Z,2.60
2023-12-28T19:20:39.504Z,3.13
2023-12-28T19:23:20.055Z,3.17
2023-12-28T19:25:55.769Z,3.57
2023-12-28T19:28:33.092Z,3.43
2023-12-28T19:31:25.011Z,2.93
2023-12-28T19:55:05.110Z,3.80
2023-12-28T19:57:39.625Z,3.27
2023-12-28T20:00:12.416Z,3.60
2023-12-28T20:02:45.262Z,3.03
2023-12-28T20:05:13.542Z,3.10
2023-12-28T20:07:41.049Z,3.90
2023-12-28T20:10:11.843Z,2.60
2023-12-28T20:12:43.399Z,2.53
2023-12-28T20:15:11.953Z,3.83
2023-12-28T20:17:42.521Z,2.60
2023-12-28T20:20:16.639Z,2.97
2023-12-28T20:22:46.832Z,3.43
2023-12-28T20:25:28.540Z,2.60
2023-12-28T20:28:00.273Z,2.80
2023-12-28T20:30:32.859Z,2.97
2023-12-28T20:33:02.162Z,3.47
2023-12-28T20:35:29.438Z,3.50
2023-12-28T20:37:56.841Z,3.83
2023-12-28T20:40:25.470Z,2.60
2023-12-28T20:42:53.055Z,2.77
2023-12-28T20:45:22.487Z,3.33
2023-12-28T20:47:49.784Z,3.57
2023-12-28T20:50:17.005Z,3.57
2023-12-28T20:52:45.199Z,2.87
2023-12-28T20:55:13.751Z,2.93
2023-12-28T20:57:45.112Z,3.93
2023-12-28T21:03:24.215Z,4.10
2023-12-28T21:08:52.001Z,4.00
2023-12-28T21:15:38.681Z,4.27
2023-12-28T21:23:51.603Z,4.73
2023-12-28T21:26:23.869Z,5.03
2023-12-28T21:29:31.369Z,5.20
2023-12-28T21:32:03.689Z,3.97
2023-12-28T21:34:50.341Z,4.60
2023-12-28T21:37:24.645Z,4.83
2023-12-28T21:39:52.094Z,5.03
2023-12-28T21:42:19.695Z,4.77
2023-12-28T21:44:47.286Z,4.87
2023-12-28T21:47:15.649Z,5.57
2023-12-28T21:49:44.292Z,4.10
2023-12-28T21:52:13.389Z,4.80
2023-12-28T21:54:40.422Z,4.70
2023-12-28T21:57:08.592Z,4.87
2023-12-28T21:59:37.061Z,4.80
2023-12-28T22:02:05.370Z,5.03
2023-12-28T22:04:32.359Z,4.60
2023-12-28T22:06:59.373Z,5.33
2023-12-28T22:09:26.369Z,5.20
2023-12-28T22:11:53.255Z,4.97
2023-12-28T22:14:23.740Z,6.23
2023-12-28T22:16:50.945Z,5.47
2023-12-28T22:19:17.918Z,5.80
2023-12-28T22:21:45.000Z,4.47
2023-12-28T22:24:12.375Z,5.10
2023-12-28T22:26:39.304Z,4.90
2023-12-28T22:29:06.583Z,5.10
2023-12-28T22:31:33.691Z,5.37
2023-12-28T22:34:01.018Z,4.63
2023-12-28T22:36:28.292Z,5.20
2023-12-28T22:38:55.341Z,4.97
2023-12-28T22:41:23.552Z,4.97
2023-12-28T22:43:50.531Z,4.63
2023-12-28T22:46:17.503Z,5.20
2023-12-28T22:48:44.535Z,5.13
2023-12-28T22:51:11.563Z,4.80
2023-12-28T22:53:38.503Z,5.53
2023-12-28T22:56:05.860Z,4.63
2023-12-28T22:58:33.459Z,6.27
2023-12-28T23:01:01.025Z,5.63
2023-12-28T23:03:28.079Z,6.03
2023-12-28T23:05:55.154Z,6.87
2023-12-28T23:08:22.094Z,5.90
2023-12-28T23:10:49.041Z,5.40
2023-12-28T23:13:16.015Z,6.17
2023-12-28T23:15:42.976Z,5.80
2023-12-28T23:18:10.775Z,5.70
2023-12-28T23:20:37.869Z,5.90
2023-12-28T23:23:04.923Z,5.43
2023-12-28T23:25:31.914Z,4.87
2023-12-28T23:27:59.020Z,6.03
2023-12-28T23:30:26.221Z,5.93
2023-12-28T23:32:53.264Z,5.27
2023-12-28T23:35:20.276Z,6.50
2023-12-28T23:37:47.174Z,5.47
2023-12-28T23:40:14.342Z,5.20
2023-12-28T23:42:42.271Z,5.23
2023-12-28T23:45:09.905Z,6.10
2023-12-28T23:47:36.876Z,6.23
2023-12-28T23:50:04.087Z,5.07
2023-12-28T23:52:31.091Z,6.43
2023-12-28T23:54:58.050Z,6.10
2023-12-28T23:57:24.988Z,6.30
2023-12-28T23:59:51.848Z,6.27
